createdAt,value
2023-05-11T00:02:02.698Z,9.85
2023-05-11T00:04:33.335Z,8.27
2023-05-11T00:07:03.852Z,9.07
2023-05-11T00:09:34.405Z,8.60
2023-05-11T00:12:04.974Z,8.73
2023-05-11T00:14:35.404Z,8.10
2023-05-11T00:17:05.958Z,8.90
2023-05-11T00:19:36.696Z,8.70
2023-05-11T00:22:07.471Z,8.98
2023-05-11T00:24:38.101Z,8.30
2023-05-11T00:27:08.602Z,8.57
2023-05-11T00:29:39.014Z,9.07
2023-05-11T00:32:09.435Z,8.10
2023-05-11T00:34:39.775Z,7.97
2023-05-11T00:37:10.213Z,7.93
2023-05-11T00:39:42.044Z,8.15
2023-05-11T00:42:13.387Z,8.45
2023-05-11T00:44:43.855Z,8.77
2023-05-11T00:47:14.785Z,8.48
2023-05-11T00:49:46.259Z,9.23
2023-05-11T00:52:16.791Z,7.78
2023-05-11T00:54:49.453Z,7.22
2023-05-11T00:57:23.100Z,7.80
2023-05-11T00:59:53.433Z,9.15
2023-05-11T01:02:23.996Z,8.43
2023-05-11T01:04:54.461Z,7.88
2023-05-11T01:07:34.906Z,8.85
2023-05-11T01:10:30.109Z,8.18
2023-05-11T01:13:12.677Z,7.93
2023-05-11T01:16:00.260Z,7.82
2023-05-11T01:18:33.458Z,7.72
2023-05-11T01:21:12.305Z,6.95
2023-05-11T01:24:14.857Z,7.43
2023-05-11T01:27:06.905Z,7.60
2023-05-11T01:29:49.626Z,6.95
2023-05-11T01:32:24.280Z,6.82
2023-05-11T01:35:05.354Z,7.05
2023-05-11T01:37:38.093Z,7.07
2023-05-11T01:40:16.019Z,6.88
2023-05-11T01:42:51.929Z,6.95
2023-05-11T01:45:24.644Z,7.28
2023-05-11T01:47:57.363Z,7.32
2023-05-11T01:50:28.840Z,7.40
2023-05-11T01:53:00.608Z,7.05
2023-05-11T01:55:34.201Z,8.00
2023-05-11T01:58:09.020Z,7.40
2023-05-11T02:00:40.984Z,7.60
2023-05-11T02:03:13.045Z,6.30
2023-05-11T02:05:44.948Z,7.20
2023-05-11T02:08:17.312Z,6.18
2023-05-11T02:10:50.301Z,6.78
2023-05-11T02:13:22.103Z,7.60
2023-05-11T02:15:57.469Z,6.88
2023-05-11T02:18:28.637Z,8.48
2023-05-11T02:21:02.149Z,8.40
2023-05-11T02:23:34.874Z,8.65
2023-05-11T02:26:07.054Z,8.45
2023-05-11T02:28:37.712Z,6.83
2023-05-11T02:31:19.639Z,8.20
2023-05-11T02:33:52.817Z,7.57
2023-05-11T02:36:25.940Z,6.40
2023-05-11T02:39:06.096Z,6.70
2023-05-11T02:41:45.531Z,7.00
2023-05-11T02:44:20.005Z,6.72
2023-05-11T02:46:52.505Z,7.07
2023-05-11T02:49:27.493Z,7.18
2023-05-11T02:51:59.897Z,6.40
2023-05-11T02:54:34.019Z,6.40
2023-05-11T02:57:05.651Z,6.07
2023-05-11T02:59:36.689Z,5.80
2023-05-11T03:02:08.858Z,5.97
2023-05-11T03:04:39.452Z,6.43
2023-05-11T03:07:10.846Z,5.78
2023-05-11T03:09:41.448Z,6.60
2023-05-11T03:12:12.865Z,6.40
2023-05-11T03:14:43.832Z,6.88
2023-05-11T03:17:16.992Z,6.13
2023-05-11T03:19:47.684Z,5.70
2023-05-11T03:22:19.584Z,6.25
2023-05-11T03:24:50.755Z,4.82
2023-05-11T03:27:21.992Z,5.57
2023-05-11T03:29:54.619Z,5.68
2023-05-11T03:32:25.980Z,4.75
2023-05-11T03:34:57.679Z,4.43
2023-05-11T03:37:28.720Z,4.75
2023-05-11T03:40:03.038Z,4.82
2023-05-11T03:42:41.749Z,4.57
2023-05-11T03:45:15.146Z,4.20
2023-05-11T03:47:47.788Z,3.97
2023-05-11T03:52:50.226Z,3.95
2023-05-11T03:55:20.868Z,3.78
2023-05-11T03:57:51.497Z,3.83
2023-05-11T04:00:22.253Z,3.50
2023-05-11T04:02:52.943Z,3.53
2023-05-11T04:05:23.418Z,3.47
2023-05-11T04:07:54.344Z,3.58
2023-05-11T04:10:25.145Z,3.53
2023-05-11T04:12:56.374Z,3.42
2023-05-11T04:15:26.882Z,3.60
2023-05-11T04:17:57.808Z,3.38
2023-05-11T04:20:28.374Z,3.20
2023-05-11T04:22:59.053Z,3.03
2023-05-11T04:25:29.365Z,2.92
2023-05-11T04:27:59.942Z,2.53
2023-05-11T04:30:30.528Z,3.00
2023-05-11T04:33:01.041Z,2.85
2023-05-11T04:35:31.937Z,3.20
2023-05-11T04:38:02.834Z,2.72
2023-05-11T04:40:35.016Z,3.05
2023-05-11T04:43:06.029Z,8.52
2023-05-11T04:45:36.565Z,7.72
2023-05-11T04:48:08.044Z,8.45
2023-05-11T04:50:39.755Z,17.60
2023-05-11T04:53:11.494Z,13.80
2023-05-11T04:55:42.015Z,12.85
2023-05-11T04:58:12.660Z,9.55
2023-05-11T05:00:43.371Z,9.93
2023-05-11T05:03:13.841Z,8.23
2023-05-11T05:05:44.497Z,8.20
2023-05-11T05:08:15.068Z,7.90
2023-05-11T05:10:45.530Z,7.47
2023-05-11T05:13:18.304Z,7.95
2023-05-11T05:15:49.517Z,7.10
2023-05-11T05:18:20.662Z,7.88
2023-05-11T05:20:52.352Z,8.43
2023-05-11T05:23:22.777Z,8.20
2023-05-11T05:25:53.539Z,7.00
2023-05-11T05:28:24.492Z,8.50
2023-05-11T05:30:55.346Z,9.20
2023-05-11T05:33:26.009Z,9.13
2023-05-11T05:35:57.063Z,10.75
2023-05-11T05:38:28.366Z,10.73
2023-05-11T05:41:00.598Z,9.70
2023-05-11T05:43:34.064Z,9.60
2023-05-11T05:46:04.707Z,9.52
2023-05-11T05:48:35.302Z,9.25
2023-05-11T05:51:05.776Z,9.13
2023-05-11T05:53:36.497Z,9.18
2023-05-11T05:56:07.539Z,10.07
2023-05-11T05:58:38.056Z,9.35
2023-05-11T06:01:08.705Z,9.10
2023-05-11T06:03:39.491Z,8.95
2023-05-11T06:06:10.378Z,7.82
2023-05-11T06:08:40.880Z,6.75
2023-05-11T06:11:11.210Z,6.70
2023-05-11T06:13:42.195Z,6.78
2023-05-11T06:16:13.241Z,5.65
2023-05-11T06:18:43.807Z,5.90
2023-05-11T06:21:14.229Z,5.22
2023-05-11T06:23:44.662Z,5.30
2023-05-11T06:26:15.148Z,5.60
2023-05-11T06:28:45.581Z,5.32
2023-05-11T06:31:18.299Z,5.60
2023-05-11T06:33:49.594Z,5.05
2023-05-11T06:36:27.108Z,4.78
2023-05-11T06:38:57.599Z,4.78
2023-05-11T06:41:28.300Z,5.07
2023-05-11T06:43:58.735Z,3.92
2023-05-11T06:46:31.699Z,4.72
2023-05-11T06:49:02.824Z,4.15
2023-05-11T06:51:33.771Z,3.83
2023-05-11T06:54:04.205Z,4.03
2023-05-11T06:56:35.611Z,3.67
2023-05-11T06:59:06.008Z,3.90
2023-05-11T07:01:36.552Z,3.85
2023-05-11T07:04:07.713Z,3.78
2023-05-11T07:06:38.200Z,3.55
2023-05-11T07:09:08.727Z,3.75
2023-05-11T07:11:39.564Z,3.90
2023-05-11T07:14:10.049Z,3.83
2023-05-11T07:16:40.656Z,3.58
2023-05-11T07:19:11.409Z,4.05
2023-05-11T07:21:42.207Z,3.40
2023-05-11T07:24:12.683Z,3.80
2023-05-11T07:26:43.096Z,3.50
2023-05-11T07:29:13.488Z,3.65
2023-05-11T07:31:44.489Z,3.60
2023-05-11T07:34:15.039Z,4.13
2023-05-11T07:36:45.472Z,2.85
2023-05-11T07:39:18.560Z,3.13
2023-05-11T07:41:49.079Z,3.55
2023-05-11T07:44:19.732Z,3.60
2023-05-11T07:46:50.387Z,3.50
2023-05-11T07:49:27.928Z,3.50
2023-05-11T07:52:05.834Z,3.25
2023-05-11T07:54:36.246Z,3.30
2023-05-11T07:57:06.820Z,2.95
2023-05-11T07:59:55.599Z,3.28
2023-05-11T08:02:26.155Z,2.88
2023-05-11T08:04:56.911Z,2.85
2023-05-11T08:07:27.407Z,3.05
2023-05-11T08:09:57.984Z,3.17
2023-05-11T08:12:28.834Z,2.45
2023-05-11T08:14:59.444Z,2.80
2023-05-11T08:17:29.937Z,2.88
2023-05-11T08:20:00.475Z,2.83
2023-05-11T08:22:31.148Z,2.75
2023-05-11T08:25:01.605Z,3.13
2023-05-11T08:27:32.204Z,2.75
2023-05-11T08:30:02.600Z,2.28
2023-05-11T08:32:40.620Z,2.40
2023-05-11T08:35:21.179Z,2.53
2023-05-11T08:37:51.959Z,2.75
2023-05-11T08:40:23.726Z,2.42
2023-05-11T08:42:58.683Z,2.30
2023-05-11T08:45:29.994Z,2.22
2023-05-11T08:48:00.920Z,2.20
2023-05-11T08:50:31.497Z,2.33
2023-05-11T08:53:01.924Z,2.30
2023-05-11T08:55:34.293Z,2.20
2023-05-11T08:58:07.381Z,2.45
2023-05-11T09:00:38.783Z,2.10
2023-05-11T09:03:09.836Z,2.30
2023-05-11T09:05:41.706Z,2.28
2023-05-11T09:08:14.660Z,1.98
2023-05-11T09:13:15.642Z,2.00
2023-05-11T09:15:46.304Z,1.83
2023-05-11T09:18:16.773Z,2.10
2023-05-11T09:20:47.528Z,1.90
2023-05-11T09:23:21.247Z,2.15
2023-05-11T09:25:51.934Z,2.20
2023-05-11T09:28:35.525Z,1.88
2023-05-11T09:31:06.687Z,1.63
2023-05-11T09:33:37.094Z,1.70
2023-05-11T09:36:07.973Z,1.75
2023-05-11T09:38:38.730Z,1.58
2023-05-11T09:43:45.642Z,1.77
2023-05-11T09:46:24.338Z,1.70
2023-05-11T09:49:04.104Z,1.58
2023-05-11T09:51:37.435Z,1.83
2023-05-11T09:56:52.877Z,1.80
2023-05-11T09:59:43.035Z,1.88
2023-05-11T10:02:45.627Z,1.52
2023-05-11T10:05:16.817Z,1.73
2023-05-11T10:07:58.353Z,1.70
2023-05-11T10:10:31.769Z,1.80
2023-05-11T10:13:04.684Z,1.45
2023-05-11T10:15:38.140Z,1.45
2023-05-11T10:18:09.331Z,1.60
2023-05-11T10:20:41.267Z,1.70
2023-05-11T10:23:13.523Z,1.50
2023-05-11T10:25:44.123Z,2.10
2023-05-11T10:28:14.858Z,1.42
2023-05-11T10:30:46.752Z,1.70
2023-05-11T10:33:18.916Z,1.38
2023-05-11T10:35:51.497Z,1.75
2023-05-11T10:38:23.759Z,1.63
2023-05-11T10:40:56.625Z,1.67
2023-05-11T10:43:39.081Z,1.88
2023-05-11T10:46:30.206Z,1.60
2023-05-11T10:49:13.398Z,2.80
2023-05-11T10:52:24.975Z,3.85
2023-05-11T10:55:20.041Z,3.67
2023-05-11T10:58:15.247Z,4.25
2023-05-11T11:01:04.534Z,5.22
2023-05-11T11:03:34.888Z,5.53
2023-05-11T11:06:27.404Z,3.40
2023-05-11T11:09:05.980Z,3.80
2023-05-11T11:11:52.550Z,5.07
2023-05-11T11:14:23.048Z,5.45
2023-05-11T11:17:19.486Z,5.47
2023-05-11T11:19:50.097Z,5.28
2023-05-11T11:22:40.031Z,5.35
2023-05-11T11:25:11.811Z,5.07
2023-05-11T11:27:51.154Z,4.30
2023-05-11T11:30:26.864Z,4.65
2023-05-11T11:33:18.410Z,5.35
2023-05-11T11:35:50.191Z,4.70
2023-05-11T11:38:23.027Z,4.60
2023-05-11T11:41:11.606Z,4.05
2023-05-11T11:43:48.104Z,4.53
2023-05-11T11:46:31.637Z,4.60
2023-05-11T11:49:12.122Z,4.70
2023-05-11T11:51:42.950Z,5.30
2023-05-11T11:54:13.959Z,5.63
2023-05-11T11:57:02.900Z,5.28
2023-05-11T11:59:48.698Z,5.47
2023-05-11T12:02:19.730Z,5.22
2023-05-11T12:04:59.311Z,5.30
2023-05-11T12:07:34.665Z,5.30
2023-05-11T12:10:05.900Z,5.50
2023-05-11T12:12:37.346Z,5.03
2023-05-11T12:15:09.659Z,5.55
2023-05-11T12:17:41.378Z,5.73
2023-05-11T12:20:20.702Z,6.10
2023-05-11T12:22:52.109Z,5.72
2023-05-11T12:25:23.645Z,5.35
2023-05-11T12:27:59.664Z,5.95
2023-05-11T12:30:33.397Z,5.63
2023-05-11T12:33:05.970Z,4.72
2023-05-11T12:35:36.923Z,5.22
2023-05-11T12:38:07.576Z,5.47
2023-05-11T12:40:40.259Z,4.65
2023-05-11T12:43:18.681Z,5.32
2023-05-11T12:45:49.910Z,5.20
2023-05-11T12:48:20.637Z,4.82
2023-05-11T12:50:51.064Z,5.20
2023-05-11T12:53:22.198Z,5.53
2023-05-11T12:56:02.591Z,4.88
2023-05-11T12:58:40.523Z,5.63
2023-05-11T13:01:11.334Z,5.70
2023-05-11T13:03:41.861Z,6.40
2023-05-11T13:06:15.939Z,5.32
2023-05-11T13:08:49.394Z,5.40
2023-05-11T13:11:28.084Z,5.35
2023-05-11T13:13:59.765Z,5.03
2023-05-11T13:16:35.171Z,5.65
2023-05-11T13:19:07.973Z,5.18
2023-05-11T13:21:38.673Z,5.22
2023-05-11T13:24:09.572Z,5.25
2023-05-11T13:26:40.171Z,6.63
2023-05-11T13:29:11.923Z,5.78
2023-05-11T13:31:53.320Z,6.05
2023-05-11T13:34:24.029Z,5.35
2023-05-11T13:36:54.621Z,6.13
2023-05-11T13:39:25.018Z,6.32
2023-05-11T13:41:56.089Z,6.57
2023-05-11T13:44:26.755Z,5.65
2023-05-11T13:46:57.570Z,5.43
2023-05-11T13:49:29.031Z,5.72
2023-05-11T13:51:59.595Z,6.07
2023-05-11T13:54:31.306Z,6.05
2023-05-11T13:57:02.253Z,6.00
2023-05-11T13:59:33.184Z,5.90
2023-05-11T14:02:03.954Z,5.85
2023-05-11T14:04:34.774Z,6.40
2023-05-11T14:07:05.296Z,5.82
2023-05-11T14:09:36.045Z,6.50
2023-05-11T14:12:06.750Z,6.53
2023-05-11T14:14:37.312Z,5.80
2023-05-11T14:17:08.317Z,6.55
2023-05-11T14:19:39.036Z,6.00
2023-05-11T14:22:09.458Z,6.80
2023-05-11T14:24:40.307Z,5.82
2023-05-11T14:27:10.573Z,5.85
2023-05-11T14:29:42.634Z,6.15
2023-05-11T14:32:14.715Z,7.18
2023-05-11T14:34:45.151Z,6.45
2023-05-11T14:37:15.694Z,6.68
2023-05-11T14:39:46.535Z,6.65
2023-05-11T14:42:17.277Z,6.45
2023-05-11T14:44:48.201Z,6.45
2023-05-11T14:47:19.050Z,6.97
2023-05-11T14:49:49.434Z,7.20
2023-05-11T14:52:19.838Z,6.50
2023-05-11T14:54:51.009Z,7.47
2023-05-11T14:57:21.485Z,6.80
2023-05-11T15:02:28.898Z,6.93
2023-05-11T15:04:59.523Z,6.45
2023-05-11T15:07:30.095Z,7.15
2023-05-11T15:10:03.142Z,6.95
2023-05-11T15:12:33.911Z,7.15
2023-05-11T15:15:05.047Z,7.40
2023-05-11T15:17:35.677Z,7.30
2023-05-11T15:20:06.614Z,7.55
2023-05-11T15:22:37.362Z,7.38
2023-05-11T15:25:08.231Z,6.97
2023-05-11T15:27:38.930Z,6.97
2023-05-11T15:30:10.135Z,6.90
2023-05-11T15:32:43.563Z,7.60
2023-05-11T15:35:15.860Z,6.85
2023-05-11T15:37:46.385Z,7.45
2023-05-11T15:40:17.794Z,7.82
2023-05-11T15:42:48.267Z,7.22
2023-05-11T15:45:19.299Z,7.30
2023-05-11T15:47:50.112Z,7.50
2023-05-11T15:50:20.953Z,7.70
2023-05-11T15:52:51.804Z,7.28
2023-05-11T15:55:22.290Z,7.43
2023-05-11T15:57:52.849Z,7.60
2023-05-11T16:00:23.558Z,7.07
2023-05-11T16:02:54.107Z,7.80
2023-05-11T16:05:24.624Z,7.95
2023-05-11T16:07:55.287Z,8.00
2023-05-11T16:10:26.004Z,8.25
2023-05-11T16:12:58.705Z,8.18
2023-05-11T16:15:30.952Z,7.47
2023-05-11T16:18:03.899Z,8.10
2023-05-11T16:20:35.747Z,8.30
2023-05-11T16:23:06.206Z,8.55
2023-05-11T16:25:54.631Z,9.25
2023-05-11T16:28:25.216Z,8.48
2023-05-11T16:30:59.185Z,7.95
2023-05-11T16:33:29.946Z,8.10
2023-05-11T16:36:00.608Z,7.78
2023-05-11T16:38:31.234Z,8.02
2023-05-11T16:41:01.992Z,8.35
2023-05-11T16:43:33.934Z,8.65
2023-05-11T16:46:05.247Z,8.98
2023-05-11T16:48:35.678Z,8.15
2023-05-11T16:51:06.457Z,8.73
2023-05-11T16:53:36.974Z,8.25
2023-05-11T16:56:08.443Z,8.27
2023-05-11T16:58:38.941Z,9.10
2023-05-11T17:01:09.565Z,8.60
2023-05-11T17:03:40.222Z,8.98
2023-05-11T17:06:13.139Z,8.85
2023-05-11T17:08:43.641Z,9.40
2023-05-11T17:11:14.859Z,7.88
2023-05-11T17:13:45.193Z,8.65
2023-05-11T17:16:15.891Z,8.90
2023-05-11T17:18:49.851Z,8.70
2023-05-11T17:21:20.366Z,8.98
2023-05-11T17:23:51.026Z,8.60
2023-05-11T17:26:24.852Z,8.85
2023-05-11T17:28:57.965Z,8.45
2023-05-11T17:31:28.695Z,8.85
2023-05-11T17:34:17.298Z,8.50
2023-05-11T17:36:47.930Z,9.05
2023-05-11T17:39:18.629Z,8.68
2023-05-11T17:41:49.505Z,8.85
2023-05-11T17:44:20.195Z,8.55
2023-05-11T17:46:50.875Z,8.95
2023-05-11T17:49:21.548Z,8.93
2023-05-11T17:51:52.155Z,8.65
2023-05-11T17:54:22.634Z,9.18
2023-05-11T17:56:53.321Z,9.35
2023-05-11T17:59:24.177Z,8.75
2023-05-11T18:01:54.728Z,8.68
2023-05-11T18:04:25.345Z,9.38
2023-05-11T18:06:55.756Z,9.43
2023-05-11T18:09:26.454Z,9.23
2023-05-11T18:11:57.221Z,9.30
2023-05-11T18:14:27.663Z,8.90
2023-05-11T18:16:58.106Z,9.25
2023-05-11T18:19:30.241Z,9.73
2023-05-11T18:22:02.072Z,9.50
2023-05-11T18:24:32.545Z,9.95
2023-05-11T18:27:03.771Z,9.30
2023-05-11T18:29:34.302Z,8.82
2023-05-11T18:32:04.700Z,8.93
2023-05-11T18:34:35.694Z,10.48
2023-05-11T18:37:06.166Z,8.98
2023-05-11T18:39:37.038Z,9.02
2023-05-11T18:42:08.959Z,9.05
2023-05-11T18:44:40.053Z,9.63
2023-05-11T18:47:12.167Z,9.63
2023-05-11T18:49:43.328Z,10.23
2023-05-11T18:52:14.186Z,9.63
2023-05-11T18:54:44.788Z,10.07
2023-05-11T18:57:20.134Z,9.45
2023-05-11T18:59:50.738Z,9.30
2023-05-11T19:02:21.354Z,9.25
2023-05-11T19:04:51.845Z,10.50
2023-05-11T19:07:22.323Z,9.20
2023-05-11T19:09:52.959Z,9.30
2023-05-11T19:12:23.418Z,9.70
2023-05-11T19:14:57.700Z,9.93
2023-05-11T19:17:28.100Z,10.15
2023-05-11T19:19:58.590Z,8.82
2023-05-11T19:22:29.249Z,9.35
2023-05-11T19:24:59.590Z,9.70
2023-05-11T19:27:30.183Z,9.20
2023-05-11T19:30:00.845Z,10.55
2023-05-11T19:32:31.275Z,9.00
2023-05-11T19:35:01.722Z,8.43
2023-05-11T19:37:32.453Z,9.02
2023-05-11T19:40:37.303Z,8.18
2023-05-11T19:42:54.160Z,8.77
2023-05-11T19:45:24.596Z,8.30
2023-05-11T19:47:55.072Z,7.90
2023-05-11T19:50:25.864Z,8.68
2023-05-11T19:52:56.733Z,7.82
2023-05-11T19:55:27.354Z,8.65
2023-05-11T19:57:57.844Z,8.45
2023-05-11T20:00:28.562Z,8.68
2023-05-11T20:02:59.179Z,8.88
2023-05-11T20:05:29.728Z,8.15
2023-05-11T20:08:00.213Z,8.23
2023-05-11T20:10:30.718Z,7.93
2023-05-11T20:13:01.438Z,7.72
2023-05-11T20:15:32.912Z,8.13
2023-05-11T20:18:06.776Z,7.88
2023-05-11T20:20:37.575Z,7.90
2023-05-11T20:23:08.040Z,7.90
2023-05-11T20:25:41.656Z,7.55
2023-05-11T20:28:13.901Z,8.05
2023-05-11T20:31:02.294Z,7.70
2023-05-11T20:38:35.644Z,7.47
2023-05-11T20:41:06.179Z,7.03
2023-05-11T20:43:36.634Z,7.25
2023-05-11T20:46:07.847Z,7.18
2023-05-11T20:48:40.445Z,7.47
2023-05-11T20:51:11.839Z,7.10
2023-05-11T20:53:42.452Z,7.18
2023-05-11T20:56:14.242Z,6.82
2023-05-11T20:59:02.589Z,8.23
2023-05-11T21:01:33.092Z,7.32
2023-05-11T21:04:03.867Z,7.50
2023-05-11T21:06:34.648Z,7.70
2023-05-11T21:09:06.018Z,8.07
2023-05-11T21:11:36.530Z,7.70
2023-05-11T21:14:06.989Z,8.25
2023-05-11T21:16:37.504Z,8.30
2023-05-11T21:19:09.215Z,7.68
2023-05-11T21:21:40.040Z,8.13
2023-05-11T21:24:10.944Z,7.80
2023-05-11T21:26:41.344Z,8.07
2023-05-11T21:29:14.563Z,8.27
2023-05-11T21:34:15.119Z,8.40
2023-05-11T21:36:47.144Z,8.90
2023-05-11T21:39:17.608Z,9.07
2023-05-11T21:42:06.347Z,8.63
2023-05-11T21:44:40.229Z,8.80
2023-05-11T21:47:28.698Z,9.23
2023-05-11T21:50:00.786Z,9.60
2023-05-11T21:52:31.139Z,8.55
2023-05-11T21:55:02.005Z,8.27
2023-05-11T21:57:32.469Z,9.10
2023-05-11T22:00:03.188Z,8.95
2023-05-11T22:02:34.574Z,8.70
2023-05-11T22:05:05.462Z,8.45
2023-05-11T22:07:36.091Z,9.05
2023-05-11T22:10:07.079Z,8.88
2023-05-11T22:12:37.896Z,7.82
2023-05-11T22:15:26.720Z,7.75
2023-05-11T22:17:57.542Z,8.35
2023-05-11T22:20:27.996Z,7.72
2023-05-11T22:22:58.999Z,7.90
2023-05-11T22:25:30.551Z,7.40
2023-05-11T22:28:01.195Z,7.75
2023-05-11T22:30:49.772Z,7.75
2023-05-11T22:33:38.209Z,7.53
2023-05-11T22:36:09.100Z,7.80
2023-05-11T22:38:40.084Z,5.85
2023-05-11T22:41:10.768Z,7.32
2023-05-11T22:43:41.478Z,6.60
2023-05-11T22:46:11.979Z,6.50
2023-05-11T22:48:42.928Z,6.82
2023-05-11T22:51:13.445Z,7.03
2023-05-11T22:53:45.093Z,6.65
2023-05-11T22:56:15.774Z,6.53
2023-05-11T22:58:46.301Z,6.85
2023-05-11T23:01:16.852Z,7.00
2023-05-11T23:03:48.211Z,6.90
2023-05-11T23:06:19.033Z,6.93
2023-05-11T23:08:49.814Z,5.78
2023-05-11T23:11:20.260Z,6.57
2023-05-11T23:13:50.970Z,6.35
2023-05-11T23:16:21.503Z,6.45
2023-05-11T23:18:52.377Z,6.40
2023-05-11T23:21:23.059Z,6.82
2023-05-11T23:23:53.559Z,6.07
2023-05-11T23:26:24.138Z,6.20
2023-05-11T23:28:54.637Z,6.93
2023-05-11T23:31:25.246Z,5.75
2023-05-11T23:33:55.810Z,6.93
2023-05-11T23:36:26.508Z,6.20
2023-05-11T23:38:57.132Z,6.63
2023-05-11T23:41:27.568Z,6.72
2023-05-11T23:43:58.064Z,6.45
2023-05-11T23:46:29.013Z,6.68
2023-05-11T23:48:59.717Z,6.68
2023-05-11T23:51:30.192Z,5.68
2023-05-11T23:54:01.264Z,7.32
2023-05-11T23:56:31.603Z,6.65
2023-05-11T23:59:02.250Z,7.25
